Douglas Observed Data For Previous 48 Hours

Caption
Day and Hour Reservoir Elevation (behind dam)* Tailwater Elevation (below dam)* Average Hourly Discharge*
9/21/2017 2 AM EDT 981.29 869.79 88
9/21/2017 3 AM EDT 981.30 869.15 0
9/21/2017 4 AM EDT 981.30 868.90 54
9/21/2017 5 AM EDT - 999.00 - 999.00 2,461
9/21/2017 6 AM EDT 981.32 869.08 0
9/21/2017 7 AM EDT 981.33 868.76 0
9/21/2017 8 AM EDT 981.32 868.68 54
9/21/2017 9 AM EDT 981.31 871.18 4,568
9/21/2017 10 AM EDT 981.31 871.60 4,654
9/21/2017 11 AM EDT 981.31 871.69 4,668
9/21/2017 12 PM EDT 981.29 871.79 4,688
9/21/2017 1 PM EDT 981.26 873.52 8,981
9/21/2017 2 PM EDT 981.23 874.03 9,185
9/21/2017 3 PM EDT 981.22 875.05 13,770
9/21/2017 4 PM EDT 981.17 875.17 13,739
9/21/2017 5 PM EDT 981.14 875.14 13,716
9/21/2017 6 PM EDT 981.11 875.21 13,824
9/21/2017 7 PM EDT 981.05 875.14 13,798
9/21/2017 8 PM EDT 981.00 875.24 13,804
9/21/2017 9 PM EDT 980.99 873.86 9,181
9/21/2017 10 PM EDT 980.97 873.70 9,099
9/21/2017 11 PM EDT 980.94 871.97 4,715
9/22/2017 12 AM EDT 980.93 871.75 4,663
9/22/2017 1 AM EDT 980.94 871.75 4,656
9/22/2017 2 AM EDT 980.96 869.79 84
9/22/2017 3 AM EDT 980.96 869.15 0
9/22/2017 4 AM EDT 980.97 868.88 54
9/22/2017 5 AM EDT 980.99 869.74 2,512
9/22/2017 6 AM EDT 980.99 869.08 0
9/22/2017 7 AM EDT 980.99 868.77 0
9/22/2017 8 AM EDT 980.99 868.68 53
9/22/2017 9 AM EDT 980.98 871.17 4,587
9/22/2017 10 AM EDT 980.97 871.60 4,643
9/22/2017 11 AM EDT 980.97 871.70 4,653
9/22/2017 12 PM EDT 980.95 871.74 4,673
9/22/2017 1 PM EDT 980.90 874.04 9,139
9/22/2017 2 PM EDT 980.89 875.14 13,768
9/22/2017 3 PM EDT 980.86 875.19 13,841
9/22/2017 4 PM EDT 980.81 875.19 13,829
9/22/2017 5 PM EDT 980.76 875.17 13,827
9/22/2017 6 PM EDT 980.73 875.17 13,803
9/22/2017 7 PM EDT 980.69 875.21 13,766
9/22/2017 8 PM EDT 980.64 875.23 13,803
9/22/2017 9 PM EDT 980.63 873.78 9,136
9/22/2017 10 PM EDT 980.61 873.68 9,081
9/22/2017 11 PM EDT 980.59 871.96 4,681
9/23/2017 12 AM EDT 980.59 871.77 4,638
9/23/2017 1 AM EDT 980.60 869.81 84
9/23/2017 2 AM EDT 980.61 869.17 0
9/23/2017 3 AM EDT 980.61 868.91 54

Elevations are in feet above sea level. Discharges are in cubic feet per second and are reported at the end of the hour.